createdAt,value
2019-03-27T00:02:31.623Z,7.13
2019-03-27T00:05:36.527Z,7.10
2019-03-27T00:08:41.374Z,7.11
2019-03-27T00:11:46.235Z,7.11
2019-03-27T00:14:51.351Z,7.13
2019-03-27T00:17:56.175Z,7.17
2019-03-27T00:21:01.025Z,7.14
2019-03-27T00:24:05.949Z,7.17
2019-03-27T00:27:10.793Z,7.16
2019-03-27T00:30:17.851Z,7.22
2019-03-27T00:33:22.763Z,7.22
2019-03-27T00:36:27.839Z,7.25
2019-03-27T00:39:32.680Z,7.22
2019-03-27T00:42:42.864Z,7.20
2019-03-27T00:45:47.459Z,7.21
2019-03-27T00:48:52.448Z,7.28
2019-03-27T00:52:00.886Z,7.19
2019-03-27T00:55:06.220Z,7.19
2019-03-27T00:58:11.211Z,7.18
2019-03-27T01:01:16.421Z,7.15
2019-03-27T01:04:21.324Z,7.14
2019-03-27T01:07:26.137Z,7.16
2019-03-27T01:10:33.491Z,7.18
2019-03-27T01:13:40.360Z,7.19
2019-03-27T01:16:45.232Z,7.18
2019-03-27T01:19:50.065Z,7.13
2019-03-27T01:22:54.930Z,7.14
2019-03-27T01:25:59.757Z,7.14
2019-03-27T01:29:04.582Z,7.13
2019-03-27T01:32:09.420Z,7.12
2019-03-27T01:35:14.246Z,7.18
2019-03-27T01:38:19.089Z,7.12
2019-03-27T01:41:23.927Z,7.16
2019-03-27T01:44:28.752Z,7.09
2019-03-27T01:47:36.799Z,7.10
2019-03-27T01:50:41.636Z,7.16
2019-03-27T01:53:48.684Z,7.11
2019-03-27T01:56:53.505Z,7.08
2019-03-27T01:59:58.316Z,7.07
2019-03-27T02:03:03.144Z,7.10
2019-03-27T02:06:08.049Z,7.17
2019-03-27T02:09:12.866Z,7.16
2019-03-27T02:12:17.793Z,7.13
2019-03-27T02:15:22.751Z,7.18
2019-03-27T02:18:30.630Z,7.14
2019-03-27T02:21:36.374Z,7.13
2019-03-27T02:24:41.182Z,7.14
2019-03-27T02:27:45.980Z,7.14
2019-03-27T02:30:50.826Z,7.17
2019-03-27T02:33:55.643Z,7.27
2019-03-27T02:37:00.466Z,7.18
2019-03-27T02:40:05.534Z,7.20
2019-03-27T02:43:11.928Z,7.15
2019-03-27T02:46:24.551Z,7.16
2019-03-27T02:49:23.299Z,7.12
2019-03-27T02:52:28.126Z,7.13
2019-03-27T02:55:32.943Z,7.16
2019-03-27T02:58:37.777Z,7.16
2019-03-27T03:01:42.589Z,7.09
2019-03-27T03:04:47.444Z,7.10
2019-03-27T03:07:52.277Z,7.08
2019-03-27T03:10:57.095Z,7.11
2019-03-27T03:14:01.903Z,7.11
2019-03-27T03:17:06.748Z,7.12
2019-03-27T03:20:11.672Z,7.13
2019-03-27T03:23:16.515Z,7.17
2019-03-27T03:26:21.370Z,7.12
2019-03-27T03:29:26.208Z,7.14
2019-03-27T03:32:31.075Z,7.12
2019-03-27T03:35:35.883Z,7.13
2019-03-27T03:38:40.693Z,7.13
2019-03-27T03:41:45.512Z,7.12
2019-03-27T03:44:50.359Z,7.14
2019-03-27T03:47:55.155Z,7.24
2019-03-27T03:51:02.274Z,7.25
2019-03-27T03:54:13.152Z,7.22
2019-03-27T03:57:21.075Z,7.22
2019-03-27T04:00:27.605Z,7.20
2019-03-27T04:03:35.159Z,7.19
2019-03-27T04:06:39.974Z,7.17
2019-03-27T04:09:44.827Z,7.21
2019-03-27T04:12:49.727Z,7.21
2019-03-27T04:15:55.558Z,7.20
2019-03-27T04:19:00.347Z,7.23
2019-03-27T04:22:05.262Z,7.23
2019-03-27T04:25:10.080Z,7.33
2019-03-27T04:28:14.935Z,7.28
2019-03-27T04:31:19.694Z,7.31
2019-03-27T04:34:24.645Z,7.31
2019-03-27T04:37:29.446Z,7.31
2019-03-27T04:40:34.342Z,7.35
2019-03-27T04:43:39.146Z,7.33
2019-03-27T04:46:44.104Z,7.24
2019-03-27T04:49:48.991Z,7.28
2019-03-27T04:52:53.843Z,7.27
2019-03-27T04:55:58.685Z,7.25
2019-03-27T04:59:06.500Z,7.23
2019-03-27T05:02:11.325Z,7.35
2019-03-27T05:05:16.149Z,7.26
2019-03-27T05:08:22.811Z,7.29
2019-03-27T05:11:27.543Z,7.22
2019-03-27T05:14:32.355Z,7.17
2019-03-27T05:17:45.776Z,7.16
2019-03-27T05:20:43.965Z,7.12
2019-03-27T05:23:48.771Z,7.11
2019-03-27T05:26:53.692Z,7.18
2019-03-27T05:29:58.495Z,7.11
2019-03-27T05:33:03.290Z,7.08
2019-03-27T05:36:08.464Z,7.08
2019-03-27T05:39:14.756Z,7.09
2019-03-27T05:42:19.633Z,7.12
2019-03-27T05:45:27.377Z,7.12
2019-03-27T05:48:32.184Z,7.16
2019-03-27T05:51:37.143Z,7.14
2019-03-27T05:54:41.964Z,7.14
2019-03-27T05:57:48.111Z,7.16
2019-03-27T06:00:54.983Z,7.13
2019-03-27T06:03:59.842Z,7.16
2019-03-27T06:07:04.657Z,7.18
2019-03-27T06:10:09.465Z,7.24
2019-03-27T06:13:14.325Z,7.29
2019-03-27T06:16:19.154Z,7.28
2019-03-27T06:19:23.965Z,7.27
2019-03-27T06:22:28.804Z,7.31
2019-03-27T06:25:33.660Z,7.30
2019-03-27T06:28:38.553Z,7.31
2019-03-27T06:31:43.408Z,7.33
2019-03-27T06:34:48.245Z,7.26
2019-03-27T06:37:53.065Z,7.31
2019-03-27T06:40:57.866Z,7.28
2019-03-27T06:44:02.681Z,7.29
2019-03-27T06:47:07.508Z,7.27
2019-03-27T06:50:12.448Z,7.40
2019-03-27T06:53:17.541Z,7.32
2019-03-27T06:56:22.379Z,7.31
2019-03-27T06:59:27.215Z,7.35
2019-03-27T07:02:35.056Z,7.37
2019-03-27T07:05:39.846Z,7.39
2019-03-27T07:08:44.670Z,7.49
2019-03-27T07:11:49.519Z,7.40
2019-03-27T07:14:54.339Z,7.44
2019-03-27T07:18:00.767Z,7.46
2019-03-27T07:21:05.623Z,7.55
2019-03-27T07:24:10.450Z,7.66
2019-03-27T07:27:15.290Z,7.64
2019-03-27T07:30:20.104Z,7.73
2019-03-27T07:33:25.132Z,7.75
2019-03-27T07:36:32.869Z,7.71
2019-03-27T07:39:37.698Z,7.66
2019-03-27T07:42:42.581Z,7.73
2019-03-27T07:45:47.403Z,7.72
2019-03-27T07:48:54.262Z,7.87
2019-03-27T07:51:58.806Z,7.95
2019-03-27T07:55:03.681Z,8.03
2019-03-27T07:58:08.536Z,8.09
2019-03-27T08:01:13.386Z,8.13
2019-03-27T08:04:18.260Z,8.14
2019-03-27T08:07:27.229Z,8.30
2019-03-27T08:10:34.981Z,8.31
2019-03-27T08:13:39.803Z,8.25
2019-03-27T08:16:44.613Z,8.31
2019-03-27T08:19:49.461Z,8.45
2019-03-27T08:22:54.281Z,8.39
2019-03-27T08:25:59.097Z,8.53
2019-03-27T08:29:03.944Z,8.58
2019-03-27T08:32:08.763Z,8.55
2019-03-27T08:35:16.344Z,8.51
2019-03-27T08:38:21.205Z,8.54
2019-03-27T08:41:26.047Z,8.77
2019-03-27T08:44:30.855Z,8.56
2019-03-27T08:47:38.230Z,8.47
2019-03-27T08:50:43.053Z,8.56
2019-03-27T08:53:47.869Z,8.48
2019-03-27T08:56:54.202Z,8.39
2019-03-27T09:00:02.752Z,8.34
2019-03-27T09:03:07.804Z,8.36
2019-03-27T09:06:15.834Z,8.41
2019-03-27T09:09:20.629Z,8.26
2019-03-27T09:12:25.535Z,8.23
2019-03-27T09:15:30.370Z,8.24
2019-03-27T09:18:35.205Z,8.24
2019-03-27T09:21:40.074Z,8.25
2019-03-27T09:24:44.883Z,8.25
2019-03-27T09:27:49.741Z,8.34
2019-03-27T09:30:54.597Z,8.34
2019-03-27T09:33:59.417Z,8.30
2019-03-27T09:37:04.248Z,8.37
2019-03-27T09:40:09.568Z,8.50
2019-03-27T09:43:16.454Z,8.40
2019-03-27T09:46:23.254Z,8.39
2019-03-27T09:49:28.228Z,8.39
2019-03-27T09:52:33.064Z,8.49
2019-03-27T09:55:38.403Z,8.47
2019-03-27T09:58:57.619Z,8.50
2019-03-27T10:13:53.082Z,8.94
2019-03-27T10:21:46.410Z,8.80
2019-03-27T10:29:43.084Z,8.76
2019-03-27T10:37:54.763Z,8.79
2019-03-27T10:41:20.381Z,8.85
2019-03-27T10:45:02.212Z,9.01
2019-03-27T10:48:15.250Z,9.07
2019-03-27T10:55:45.440Z,9.01
2019-03-27T11:14:14.859Z,9.17
2019-03-27T11:17:27.101Z,9.14
2019-03-27T11:29:12.611Z,9.14
2019-03-27T11:33:02.879Z,9.26
2019-03-27T11:40:00.013Z,9.33
2019-03-27T11:43:05.871Z,9.33
2019-03-27T11:46:11.633Z,9.32
2019-03-27T11:50:06.847Z,9.42
2019-03-27T11:53:48.465Z,9.43
2019-03-27T11:57:16.678Z,9.44
2019-03-27T12:00:23.426Z,9.50
2019-03-27T12:03:29.065Z,9.52
2019-03-27T12:06:33.968Z,9.55
2019-03-27T12:09:38.850Z,9.61
2019-03-27T12:12:43.808Z,9.60
2019-03-27T12:15:48.986Z,9.82
2019-03-27T12:19:37.842Z,9.70
2019-03-27T12:23:16.208Z,9.75
2019-03-27T12:26:39.900Z,9.70
2019-03-27T12:29:47.326Z,9.81
2019-03-27T12:33:01.726Z,9.78
2019-03-27T12:36:18.811Z,9.79
2019-03-27T12:39:24.285Z,9.77
2019-03-27T12:42:29.819Z,9.78
2019-03-27T12:45:37.479Z,9.72
2019-03-27T12:48:57.846Z,9.71
2019-03-27T12:52:05.600Z,9.61
2019-03-27T12:55:11.460Z,9.53
2019-03-27T12:58:17.341Z,9.51
2019-03-27T13:01:39.189Z,9.45
2019-03-27T13:04:53.754Z,9.53
2019-03-27T13:11:39.056Z,9.62
2019-03-27T13:14:58.339Z,9.43
2019-03-27T13:18:25.970Z,9.38
2019-03-27T13:21:32.778Z,9.38
2019-03-27T13:24:42.605Z,9.37
2019-03-27T13:36:06.407Z,9.45
2019-03-27T13:39:47.238Z,9.34
2019-03-27T13:43:45.015Z,9.32
2019-03-27T13:47:16.480Z,9.37
2019-03-27T13:50:30.025Z,9.41
2019-03-27T13:53:41.642Z,9.31
2019-03-27T13:56:53.179Z,9.36
2019-03-27T14:03:49.745Z,9.37
2019-03-27T14:07:06.148Z,9.33
2019-03-27T14:10:14.356Z,9.17
2019-03-27T14:13:38.650Z,9.18
2019-03-27T14:18:20.043Z,9.17
2019-03-27T14:20:18.404Z,9.16
2019-03-27T14:23:23.691Z,9.11
2019-03-27T14:26:29.009Z,9.10
2019-03-27T14:29:34.552Z,9.00
2019-03-27T14:32:40.007Z,9.07
2019-03-27T14:40:05.358Z,9.00
2019-03-27T14:43:16.826Z,9.06
2019-03-27T14:47:08.299Z,9.02
2019-03-27T14:50:25.185Z,9.06
2019-03-27T14:53:49.458Z,8.91
2019-03-27T14:57:22.509Z,8.97
2019-03-27T15:08:12.996Z,8.95
2019-03-27T15:11:43.774Z,8.93
2019-03-27T15:14:52.526Z,8.87
2019-03-27T15:18:00.903Z,8.90
2019-03-27T15:21:07.890Z,8.85
2019-03-27T15:25:05.440Z,8.87
2019-03-27T15:28:46.390Z,8.88
2019-03-27T15:32:01.669Z,8.84
2019-03-27T15:35:08.869Z,8.83
2019-03-27T15:43:22.990Z,8.83
2019-03-27T15:57:07.302Z,8.74
2019-03-27T16:00:25.350Z,8.78
2019-03-27T16:03:33.371Z,8.85
2019-03-27T16:07:38.205Z,8.78
2019-03-27T16:11:25.142Z,8.76
2019-03-27T16:15:15.504Z,8.70
2019-03-27T16:22:24.945Z,8.67
2019-03-27T16:33:30.884Z,8.64
2019-03-27T16:53:03.799Z,8.51
2019-03-27T16:56:44.611Z,8.52
2019-03-27T17:00:47.306Z,8.52
2019-03-27T17:12:06.112Z,8.44
2019-03-27T17:15:40.305Z,8.41
2019-03-27T17:19:31.692Z,8.40
2019-03-27T17:22:46.422Z,8.40
2019-03-27T17:25:54.484Z,8.48
2019-03-27T17:29:33.318Z,8.39
2019-03-27T17:37:16.095Z,8.39
2019-03-27T17:41:13.765Z,8.37
2019-03-27T17:48:29.128Z,8.37
2019-03-27T17:55:49.460Z,8.49
2019-03-27T17:58:56.959Z,8.41
2019-03-27T18:02:02.425Z,8.35
2019-03-27T18:05:08.998Z,8.34
2019-03-27T18:20:10.771Z,8.32
2019-03-27T18:30:17.873Z,8.37
2019-03-27T18:37:02.086Z,8.36
2019-03-27T18:48:05.484Z,8.32
2019-03-27T18:51:12.647Z,8.33
2019-03-27T18:58:22.051Z,8.34
2019-03-27T19:01:51.129Z,8.38
2019-03-27T19:16:49.103Z,8.32
2019-03-27T19:23:35.240Z,8.30
2019-03-27T19:26:43.886Z,8.24
2019-03-27T19:29:59.040Z,8.22
2019-03-27T19:33:25.379Z,8.28
2019-03-27T19:40:04.366Z,8.24
2019-03-27T19:51:14.952Z,8.26
2019-03-27T19:58:01.069Z,8.29
2019-03-27T20:01:18.102Z,8.31
2019-03-27T20:04:25.061Z,8.31
2019-03-27T20:07:46.502Z,8.28
2019-03-27T20:11:29.034Z,8.26
2019-03-27T20:19:02.547Z,8.30
2019-03-27T20:22:51.241Z,8.28
2019-03-27T20:29:39.627Z,8.26
2019-03-27T20:32:55.721Z,8.27
2019-03-27T20:36:04.634Z,8.25
2019-03-27T20:39:10.357Z,8.40
2019-03-27T20:42:27.497Z,8.27
2019-03-27T20:45:32.568Z,8.30
2019-03-27T20:48:46.456Z,8.28
2019-03-27T20:51:54.823Z,8.25
2019-03-27T20:55:03.988Z,8.24
2019-03-27T20:58:14.881Z,8.25
2019-03-27T21:01:20.838Z,8.22
2019-03-27T21:04:30.062Z,8.27
2019-03-27T21:07:36.050Z,8.25
2019-03-27T21:14:56.012Z,8.31
2019-03-27T21:18:02.466Z,8.25
2019-03-27T21:21:11.322Z,8.24
2019-03-27T21:24:28.580Z,8.25
2019-03-27T21:27:40.465Z,8.23
2019-03-27T21:30:50.451Z,8.24
2019-03-27T21:33:57.685Z,8.23
2019-03-27T21:37:06.501Z,8.24
2019-03-27T21:40:14.896Z,8.22
2019-03-27T21:43:20.560Z,8.21
2019-03-27T21:50:18.516Z,8.20
2019-03-27T21:53:31.512Z,8.17
2019-03-27T21:56:39.855Z,8.17
2019-03-27T21:59:47.971Z,8.22
2019-03-27T22:02:54.955Z,8.22
2019-03-27T22:06:03.720Z,8.22
2019-03-27T22:09:15.827Z,8.19
2019-03-27T22:12:22.765Z,8.20
2019-03-27T22:15:48.279Z,8.18
2019-03-27T22:19:02.619Z,8.18
2019-03-27T22:22:11.473Z,8.17
2019-03-27T22:25:20.023Z,8.19
2019-03-27T22:28:38.789Z,8.23
2019-03-27T22:31:44.508Z,8.21
2019-03-27T22:34:54.389Z,8.18
2019-03-27T22:42:13.257Z,8.21
2019-03-27T22:48:47.727Z,8.19
2019-03-27T22:52:02.141Z,8.19
2019-03-27T22:58:37.205Z,8.22
2019-03-27T23:01:47.198Z,8.25
2019-03-27T23:04:55.916Z,8.27
2019-03-27T23:08:01.431Z,8.25
2019-03-27T23:11:06.875Z,8.23
2019-03-27T23:14:21.223Z,8.25
2019-03-27T23:17:26.958Z,8.31
2019-03-27T23:20:34.102Z,8.22
2019-03-27T23:23:39.725Z,8.21
2019-03-27T23:26:45.481Z,8.22
2019-03-27T23:29:51.138Z,8.24
2019-03-27T23:32:59.771Z,8.23
2019-03-27T23:36:16.152Z,8.25
2019-03-27T23:39:29.449Z,8.32
2019-03-27T23:42:35.111Z,8.28
2019-03-27T23:45:48.560Z,8.22
2019-03-27T23:49:15.844Z,8.18
2019-03-27T23:52:23.436Z,8.17
2019-03-27T23:55:29.092Z,8.16
2019-03-27T23:58:34.942Z,8.19
